sensor_id;sensor_type;location;lat;lon;timestamp;pressure;altitude;pressure_sealevel;temperature;humidity
52983;BME280;48698;45.736;13.926;2022-12-29T00:03:14;98108.69;;;6.23;100.00
52983;BME280;48698;45.736;13.926;2022-12-29T00:08:19;98271.47;;;7.18;100.00
52983;BME280;48698;45.736;13.926;2022-12-29T00:13:22;98266.81;;;7.27;100.00
52983;BME280;48698;45.736;13.926;2022-12-29T00:18:44;98257.59;;;7.10;100.00
52983;BME280;48698;45.736;13.926;2022-12-29T00:23:58;98304.72;;;7.56;100.00
52983;BME280;48698;45.736;13.926;2022-12-29T00:29:20;98314.47;;;7.55;100.00
52983;BME280;48698;45.736;13.926;2022-12-29T00:34:43;98254.66;;;7.22;100.00
52983;BME280;48698;45.736;13.926;2022-12-29T00:40:05;98149.13;;;6.56;100.00
52983;BME280;48698;45.736;13.926;2022-12-29T00:45:27;98318.69;;;7.30;100.00
52983;BME280;48698;45.736;13.926;2022-12-29T00:50:32;98257.50;;;7.13;100.00
52983;BME280;48698;45.736;13.926;2022-12-29T00:55:38;98278.25;;;7.28;100.00
52983;BME280;48698;45.736;13.926;2022-12-29T01:00:43;98222.38;;;7.11;100.00
52983;BME280;48698;45.736;13.926;2022-12-29T01:06:00;98306.47;;;7.57;100.00
52983;BME280;48698;45.736;13.926;2022-12-29T01:11:09;98296.00;;;7.54;100.00
52983;BME280;48698;45.736;13.926;2022-12-29T01:16:13;98199.84;;;6.98;100.00
52983;BME280;48698;45.736;13.926;2022-12-29T01:21:18;98224.28;;;7.06;100.00
52983;BME280;48698;45.736;13.926;2022-12-29T01:26:21;98258.00;;;7.27;100.00
52983;BME280;48698;45.736;13.926;2022-12-29T01:31:25;98278.34;;;7.23;100.00
52983;BME280;48698;45.736;13.926;2022-12-29T01:36:29;98240.66;;;6.86;100.00
52983;BME280;48698;45.736;13.926;2022-12-29T01:41:33;98193.00;;;6.91;100.00
52983;BME280;48698;45.736;13.926;2022-12-29T01:46:39;98263.28;;;7.27;100.00
52983;BME280;48698;45.736;13.926;2022-12-29T01:52:04;98301.16;;;7.58;100.00
52983;BME280;48698;45.736;13.926;2022-12-29T01:57:12;98283.69;;;7.53;100.00
52983;BME280;48698;45.736;13.926;2022-12-29T02:02:17;98253.78;;;7.21;100.00
52983;BME280;48698;45.736;13.926;2022-12-29T02:07:23;98187.56;;;6.97;100.00
52983;BME280;48698;45.736;13.926;2022-12-29T02:12:28;98126.56;;;6.44;100.00
52983;BME280;48698;45.736;13.926;2022-12-29T02:18:10;98279.44;;;7.47;100.00
52983;BME280;48698;45.736;13.926;2022-12-29T02:34:48;98271.78;;;7.38;100.00
52983;BME280;48698;45.736;13.926;2022-12-29T02:45:06;98246.53;;;7.28;100.00
52983;BME280;48698;45.736;13.926;2022-12-29T02:50:32;98197.63;;;7.44;100.00
52983;BME280;48698;45.736;13.926;2022-12-29T02:55:37;98192.50;;;7.09;100.00
52983;BME280;48698;45.736;13.926;2022-12-29T03:00:52;98170.91;;;7.24;100.00
52983;BME280;48698;45.736;13.926;2022-12-29T03:11:13;98226.72;;;6.81;100.00
52983;BME280;48698;45.736;13.926;2022-12-29T03:16:48;98235.09;;;6.97;100.00
52983;BME280;48698;45.736;13.926;2022-12-29T03:22:01;98026.03;;;5.90;100.00
52983;BME280;48698;45.736;13.926;2022-12-29T03:27:38;98190.66;;;6.80;100.00
52983;BME280;48698;45.736;13.926;2022-12-29T03:32:47;98171.56;;;6.70;100.00
52983;BME280;48698;45.736;13.926;2022-12-29T03:37:58;98169.09;;;6.64;100.00
52983;BME280;48698;45.736;13.926;2022-12-29T03:43:03;98208.50;;;7.03;100.00
52983;BME280;48698;45.736;13.926;2022-12-29T03:48:07;98152.81;;;6.80;100.00
52983;BME280;48698;45.736;13.926;2022-12-29T03:53:11;98229.72;;;7.31;100.00
52983;BME280;48698;45.736;13.926;2022-12-29T03:58:14;98154.44;;;6.85;100.00
52983;BME280;48698;45.736;13.926;2022-12-29T04:03:19;98228.34;;;7.48;100.00
52983;BME280;48698;45.736;13.926;2022-12-29T04:08:23;98140.97;;;6.63;100.00
52983;BME280;48698;45.736;13.926;2022-12-29T04:13:26;98162.38;;;6.85;100.00
52983;BME280;48698;45.736;13.926;2022-12-29T04:18:36;98192.91;;;6.94;100.00
52983;BME280;48698;45.736;13.926;2022-12-29T04:23:40;98170.50;;;6.78;100.00
52983;BME280;48698;45.736;13.926;2022-12-29T04:28:43;98044.47;;;5.92;100.00
52983;BME280;48698;45.736;13.926;2022-12-29T04:33:47;98171.47;;;6.73;100.00
52983;BME280;48698;45.736;13.926;2022-12-29T04:38:51;98055.25;;;6.15;100.00
52983;BME280;48698;45.736;13.926;2022-12-29T04:43:55;98103.47;;;6.20;100.00
52983;BME280;48698;45.736;13.926;2022-12-29T04:48:58;98155.41;;;6.50;100.00
52983;BME280;48698;45.736;13.926;2022-12-29T04:54:04;98239.03;;;7.13;100.00
52983;BME280;48698;45.736;13.926;2022-12-29T04:59:08;98018.41;;;5.80;100.00
52983;BME280;48698;45.736;13.926;2022-12-29T05:04:11;98038.44;;;5.85;100.00
52983;BME280;48698;45.736;13.926;2022-12-29T05:09:15;98221.34;;;6.84;100.00
52983;BME280;48698;45.736;13.926;2022-12-29T05:14:19;98238.78;;;6.90;100.00
52983;BME280;48698;45.736;13.926;2022-12-29T05:19:27;98077.00;;;5.91;100.00
52983;BME280;48698;45.736;13.926;2022-12-29T05:24:31;98208.84;;;6.58;100.00
52983;BME280;48698;45.736;13.926;2022-12-29T05:29:35;98158.41;;;6.37;100.00
52983;BME280;48698;45.736;13.926;2022-12-29T05:34:38;98198.09;;;6.66;100.00
52983;BME280;48698;45.736;13.926;2022-12-29T05:39:42;98233.91;;;7.07;100.00
52983;BME280;48698;45.736;13.926;2022-12-29T05:44:45;98174.56;;;6.58;100.00
52983;BME280;48698;45.736;13.926;2022-12-29T05:49:50;98250.53;;;7.12;100.00
52983;BME280;48698;45.736;13.926;2022-12-29T05:54:54;98174.03;;;6.76;100.00
52983;BME280;48698;45.736;13.926;2022-12-29T05:59:57;98098.34;;;6.14;100.00
52983;BME280;48698;45.736;13.926;2022-12-29T06:05:01;98268.69;;;6.92;100.00
52983;BME280;48698;45.736;13.926;2022-12-29T06:10:05;98270.16;;;7.02;100.00
52983;BME280;48698;45.736;13.926;2022-12-29T06:15:09;98184.84;;;6.67;100.00
52983;BME280;48698;45.736;13.926;2022-12-29T06:20:23;98177.03;;;6.63;100.00
52983;BME280;48698;45.736;13.926;2022-12-29T06:25:27;98037.53;;;5.88;100.00
52983;BME280;48698;45.736;13.926;2022-12-29T06:30:32;98247.31;;;7.01;100.00
52983;BME280;48698;45.736;13.926;2022-12-29T06:35:37;98130.00;;;6.14;100.00
52983;BME280;48698;45.736;13.926;2022-12-29T06:40:42;98256.38;;;6.91;100.00
52983;BME280;48698;45.736;13.926;2022-12-29T06:45:45;98253.94;;;6.83;100.00
52983;BME280;48698;45.736;13.926;2022-12-29T06:50:49;98223.47;;;6.71;100.00
52983;BME280;48698;45.736;13.926;2022-12-29T06:55:53;98237.19;;;6.84;100.00
52983;BME280;48698;45.736;13.926;2022-12-29T07:00:56;98213.69;;;6.75;100.00
52983;BME280;48698;45.736;13.926;2022-12-29T07:06:00;98119.09;;;6.28;100.00
52983;BME280;48698;45.736;13.926;2022-12-29T07:11:04;98258.38;;;7.13;100.00
52983;BME280;48698;45.736;13.926;2022-12-29T07:16:09;98263.91;;;7.06;100.00
52983;BME280;48698;45.736;13.926;2022-12-29T07:21:13;98264.97;;;6.99;100.00
52983;BME280;48698;45.736;13.926;2022-12-29T07:26:17;98221.25;;;6.89;100.00
52983;BME280;48698;45.736;13.926;2022-12-29T07:31:22;98270.50;;;7.22;100.00
52983;BME280;48698;45.736;13.926;2022-12-29T07:36:25;98285.75;;;7.11;100.00
52983;BME280;48698;45.736;13.926;2022-12-29T07:41:53;98241.69;;;6.81;100.00
52983;BME280;48698;45.736;13.926;2022-12-29T07:47:05;98277.03;;;7.09;100.00
52983;BME280;48698;45.736;13.926;2022-12-29T07:52:11;98214.56;;;6.75;100.00
52983;BME280;48698;45.736;13.926;2022-12-29T07:57:14;98187.03;;;6.52;100.00
52983;BME280;48698;45.736;13.926;2022-12-29T08:02:17;98266.28;;;7.15;100.00
52983;BME280;48698;45.736;13.926;2022-12-29T08:07:21;98214.69;;;6.69;100.00
52983;BME280;48698;45.736;13.926;2022-12-29T08:12:24;98206.16;;;6.60;100.00
52983;BME280;48698;45.736;13.926;2022-12-29T08:17:27;98266.78;;;6.97;100.00
52983;BME280;48698;45.736;13.926;2022-12-29T08:22:31;98315.31;;;7.25;100.00
52983;BME280;48698;45.736;13.926;2022-12-29T08:27:44;98297.63;;;7.27;100.00
52983;BME280;48698;45.736;13.926;2022-12-29T08:32:47;98315.31;;;7.25;100.00
52983;BME280;48698;45.736;13.926;2022-12-29T08:37:51;98305.44;;;7.32;100.00
52983;BME280;48698;45.736;13.926;2022-12-29T08:42:54;98180.00;;;6.52;100.00
52983;BME280;48698;45.736;13.926;2022-12-29T08:47:58;98263.22;;;6.99;100.00
52983;BME280;48698;45.736;13.926;2022-12-29T08:53:11;98260.13;;;7.14;100.00
52983;BME280;48698;45.736;13.926;2022-12-29T08:58:14;98308.91;;;7.34;100.00
52983;BME280;48698;45.736;13.926;2022-12-29T09:03:19;98288.47;;;7.40;100.00
52983;BME280;48698;45.736;13.926;2022-12-29T09:08:43;98287.66;;;7.38;100.00
52983;BME280;48698;45.736;13.926;2022-12-29T09:13:47;98310.69;;;7.64;100.00
52983;BME280;48698;45.736;13.926;2022-12-29T09:18:51;98205.78;;;6.75;100.00
52983;BME280;48698;45.736;13.926;2022-12-29T09:23:54;98204.72;;;6.81;100.00
52983;BME280;48698;45.736;13.926;2022-12-29T09:29:01;98305.97;;;7.44;100.00
52983;BME280;48698;45.736;13.926;2022-12-29T09:34:04;98175.09;;;6.69;100.00
52983;BME280;48698;45.736;13.926;2022-12-29T09:39:08;98273.94;;;7.24;100.00
52983;BME280;48698;45.736;13.926;2022-12-29T09:44:28;98307.34;;;7.57;100.00
52983;BME280;48698;45.736;13.926;2022-12-29T09:49:56;98312.75;;;7.53;100.00
52983;BME280;48698;45.736;13.926;2022-12-29T09:55:05;98307.66;;;7.47;100.00
52983;BME280;48698;45.736;13.926;2022-12-29T10:00:18;98322.94;;;7.66;100.00
52983;BME280;48698;45.736;13.926;2022-12-29T10:10:53;98331.25;;;7.84;100.00
52983;BME280;48698;45.736;13.926;2022-12-29T10:16:12;98319.00;;;7.81;100.00
52983;BME280;48698;45.736;13.926;2022-12-29T10:21:31;98276.41;;;7.61;100.00
52983;BME280;48698;45.736;13.926;2022-12-29T10:26:42;98321.63;;;7.81;100.00
52983;BME280;48698;45.736;13.926;2022-12-29T10:31:50;98288.75;;;7.60;100.00
52983;BME280;48698;45.736;13.926;2022-12-29T10:37:02;98311.97;;;7.80;100.00
52983;BME280;48698;45.736;13.926;2022-12-29T10:42:13;98295.78;;;7.91;100.00
52983;BME280;48698;45.736;13.926;2022-12-29T10:47:20;98257.91;;;7.61;100.00
52983;BME280;48698;45.736;13.926;2022-12-29T10:52:26;98299.41;;;7.88;100.00
52983;BME280;48698;45.736;13.926;2022-12-29T10:57:34;98259.25;;;7.74;100.00
52983;BME280;48698;45.736;13.926;2022-12-29T11:08:24;98242.50;;;7.75;100.00
52983;BME280;48698;45.736;13.926;2022-12-29T11:13:50;98278.66;;;8.02;100.00
52983;BME280;48698;45.736;13.926;2022-12-29T11:18:54;98272.66;;;7.97;100.00
52983;BME280;48698;45.736;13.926;2022-12-29T11:24:01;98270.13;;;7.93;100.00
52983;BME280;48698;45.736;13.926;2022-12-29T11:29:16;98238.03;;;7.77;100.00
52983;BME280;48698;45.736;13.926;2022-12-29T11:34:26;98271.06;;;7.92;100.00
52983;BME280;48698;45.736;13.926;2022-12-29T11:39:38;98232.16;;;7.67;100.00
52983;BME280;48698;45.736;13.926;2022-12-29T11:44:52;98248.88;;;7.96;100.00
52983;BME280;48698;45.736;13.926;2022-12-29T11:50:07;98225.28;;;7.90;100.00
52983;BME280;48698;45.736;13.926;2022-12-29T11:55:21;98249.44;;;8.07;100.00
52983;BME280;48698;45.736;13.926;2022-12-29T12:00:38;98256.66;;;8.02;100.00
52983;BME280;48698;45.736;13.926;2022-12-29T12:05:50;98242.22;;;8.12;100.00
52983;BME280;48698;45.736;13.926;2022-12-29T12:11:12;98231.00;;;8.04;100.00
52983;BME280;48698;45.736;13.926;2022-12-29T12:16:46;98209.06;;;8.00;100.00
52983;BME280;48698;45.736;13.926;2022-12-29T12:21:49;98191.84;;;7.89;100.00
52983;BME280;48698;45.736;13.926;2022-12-29T12:27:02;98223.53;;;8.16;100.00
52983;BME280;48698;45.736;13.926;2022-12-29T12:32:20;98206.59;;;8.22;100.00
52983;BME280;48698;45.736;13.926;2022-12-29T12:43:15;98177.94;;;8.36;100.00
52983;BME280;48698;45.736;13.926;2022-12-29T13:04:56;98176.28;;;8.32;100.00
52983;BME280;48698;45.736;13.926;2022-12-29T13:10:27;98173.75;;;8.29;100.00
52983;BME280;48698;45.736;13.926;2022-12-29T13:26:24;98114.41;;;7.84;100.00
52983;BME280;48698;45.736;13.926;2022-12-29T13:37:31;98161.69;;;8.20;100.00
52983;BME280;48698;45.736;13.926;2022-12-29T13:42:36;98166.09;;;8.20;100.00
52983;BME280;48698;45.736;13.926;2022-12-29T13:48:01;98154.00;;;8.13;100.00
52983;BME280;48698;45.736;13.926;2022-12-29T13:53:15;98169.41;;;8.28;100.00
52983;BME280;48698;45.736;13.926;2022-12-29T14:08:47;98111.84;;;7.82;100.00
52983;BME280;48698;45.736;13.926;2022-12-29T14:13:51;98077.34;;;7.59;100.00
52983;BME280;48698;45.736;13.926;2022-12-29T14:18:55;98034.88;;;7.37;100.00
52983;BME280;48698;45.736;13.926;2022-12-29T14:34:43;98099.44;;;7.56;100.00
52983;BME280;48698;45.736;13.926;2022-12-29T14:50:40;98196.81;;;7.98;100.00
52983;BME280;48698;45.736;13.926;2022-12-29T14:55:56;98183.06;;;7.87;100.00
52983;BME280;48698;45.736;13.926;2022-12-29T15:01:00;98169.25;;;7.78;100.00
52983;BME280;48698;45.736;13.926;2022-12-29T15:06:06;98202.31;;;7.92;100.00
52983;BME280;48698;45.736;13.926;2022-12-29T15:11:20;98196.09;;;7.93;100.00
52983;BME280;48698;45.736;13.926;2022-12-29T15:16:30;98188.34;;;7.87;100.00
52983;BME280;48698;45.736;13.926;2022-12-29T15:21:34;98201.28;;;7.96;100.00
52983;BME280;48698;45.736;13.926;2022-12-29T15:26:40;98034.25;;;7.01;100.00
52983;BME280;48698;45.736;13.926;2022-12-29T15:31:53;98044.84;;;7.01;100.00
52983;BME280;48698;45.736;13.926;2022-12-29T15:36:56;98058.13;;;6.98;100.00
52983;BME280;48698;45.736;13.926;2022-12-29T15:47:24;98131.75;;;7.38;100.00
52983;BME280;48698;45.736;13.926;2022-12-29T15:52:30;98221.16;;;7.81;100.00
52983;BME280;48698;45.736;13.926;2022-12-29T15:57:42;98214.19;;;7.78;100.00
52983;BME280;48698;45.736;13.926;2022-12-29T16:02:46;98177.84;;;7.56;100.00
52983;BME280;48698;45.736;13.926;2022-12-29T16:07:58;98214.31;;;7.74;100.00
52983;BME280;48698;45.736;13.926;2022-12-29T16:13:05;98199.88;;;7.56;100.00
52983;BME280;48698;45.736;13.926;2022-12-29T16:18:21;98220.31;;;7.79;100.00
52983;BME280;48698;45.736;13.926;2022-12-29T16:23:28;98175.19;;;7.57;100.00
52983;BME280;48698;45.736;13.926;2022-12-29T16:28:39;98142.22;;;7.41;100.00
52983;BME280;48698;45.736;13.926;2022-12-29T16:33:54;98130.81;;;7.39;100.00
52983;BME280;48698;45.736;13.926;2022-12-29T16:44:29;98130.97;;;7.35;100.00
52983;BME280;48698;45.736;13.926;2022-12-29T16:49:34;98143.94;;;7.42;100.00
52983;BME280;48698;45.736;13.926;2022-12-29T16:54:38;98122.19;;;7.33;100.00
52983;BME280;48698;45.736;13.926;2022-12-29T16:59:42;98178.22;;;7.73;100.00
52983;BME280;48698;45.736;13.926;2022-12-29T17:04:45;98087.91;;;7.31;100.00
52983;BME280;48698;45.736;13.926;2022-12-29T17:09:51;98206.06;;;7.85;100.00
52983;BME280;48698;45.736;13.926;2022-12-29T17:14:56;98204.78;;;7.96;100.00
52983;BME280;48698;45.736;13.926;2022-12-29T17:20:13;98200.28;;;8.00;100.00
52983;BME280;48698;45.736;13.926;2022-12-29T17:25:19;98149.38;;;7.65;100.00
52983;BME280;48698;45.736;13.926;2022-12-29T17:30:24;98205.66;;;7.97;100.00
52983;BME280;48698;45.736;13.926;2022-12-29T17:35:35;98194.81;;;7.78;100.00
52983;BME280;48698;45.736;13.926;2022-12-29T17:40:37;98126.75;;;7.29;100.00
52983;BME280;48698;45.736;13.926;2022-12-29T17:45:42;98208.16;;;7.73;100.00
52983;BME280;48698;45.736;13.926;2022-12-29T17:50:47;98147.41;;;7.44;100.00
52983;BME280;48698;45.736;13.926;2022-12-29T17:55:51;98121.38;;;7.32;100.00
52983;BME280;48698;45.736;13.926;2022-12-29T18:00:56;98211.81;;;7.69;100.00
52983;BME280;48698;45.736;13.926;2022-12-29T18:05:59;98212.66;;;7.71;100.00
52983;BME280;48698;45.736;13.926;2022-12-29T18:11:02;98218.63;;;7.76;100.00
52983;BME280;48698;45.736;13.926;2022-12-29T18:16:06;98118.06;;;7.24;100.00
52983;BME280;48698;45.736;13.926;2022-12-29T18:21:17;98210.72;;;7.76;100.00
52983;BME280;48698;45.736;13.926;2022-12-29T18:26:25;98209.91;;;7.74;100.00
52983;BME280;48698;45.736;13.926;2022-12-29T18:31:33;98169.69;;;7.63;100.00
52983;BME280;48698;45.736;13.926;2022-12-29T18:36:36;98188.59;;;7.79;100.00
52983;BME280;48698;45.736;13.926;2022-12-29T18:41:39;98175.56;;;7.73;100.00
52983;BME280;48698;45.736;13.926;2022-12-29T18:46:42;98209.47;;;7.88;100.00
52983;BME280;48698;45.736;13.926;2022-12-29T18:51:55;98214.91;;;7.84;100.00
52983;BME280;48698;45.736;13.926;2022-12-29T18:56:57;98107.59;;;7.21;100.00
52983;BME280;48698;45.736;13.926;2022-12-29T19:02:15;98098.19;;;7.12;100.00
52983;BME280;48698;45.736;13.926;2022-12-29T19:07:18;98090.97;;;7.17;100.00
52983;BME280;48698;45.736;13.926;2022-12-29T19:12:21;98124.09;;;7.29;100.00
52983;BME280;48698;45.736;13.926;2022-12-29T19:17:28;98085.03;;;7.11;100.00
52983;BME280;48698;45.736;13.926;2022-12-29T19:22:31;98190.66;;;7.69;100.00
52983;BME280;48698;45.736;13.926;2022-12-29T19:27:33;98194.81;;;7.78;100.00
52983;BME280;48698;45.736;13.926;2022-12-29T19:32:36;98179.59;;;7.57;100.00
52983;BME280;48698;45.736;13.926;2022-12-29T19:37:39;98187.41;;;7.61;100.00
52983;BME280;48698;45.736;13.926;2022-12-29T19:42:43;98160.28;;;7.55;100.00
52983;BME280;48698;45.736;13.926;2022-12-29T19:47:45;98131.75;;;7.38;100.00
52983;BME280;48698;45.736;13.926;2022-12-29T19:52:48;98151.13;;;7.37;100.00
52983;BME280;48698;45.736;13.926;2022-12-29T19:58:06;98063.31;;;7.01;100.00
52983;BME280;48698;45.736;13.926;2022-12-29T20:03:09;98208.13;;;7.75;100.00
52983;BME280;48698;45.736;13.926;2022-12-29T20:08:12;98148.31;;;7.43;100.00
52983;BME280;48698;45.736;13.926;2022-12-29T20:13:15;98133.63;;;7.33;100.00
52983;BME280;48698;45.736;13.926;2022-12-29T20:18:28;98211.44;;;7.82;100.00
52983;BME280;48698;45.736;13.926;2022-12-29T20:23:32;98148.06;;;7.51;100.00
52983;BME280;48698;45.736;13.926;2022-12-29T20:28:35;98091.63;;;7.25;100.00
52983;BME280;48698;45.736;13.926;2022-12-29T20:33:38;98149.47;;;7.62;100.00
52983;BME280;48698;45.736;13.926;2022-12-29T20:38:41;98175.19;;;7.85;100.00
52983;BME280;48698;45.736;13.926;2022-12-29T20:43:45;98165.75;;;7.76;100.00
52983;BME280;48698;45.736;13.926;2022-12-29T20:48:48;98176.72;;;7.92;100.00
52983;BME280;48698;45.736;13.926;2022-12-29T20:53:51;98182.72;;;7.97;100.00
52983;BME280;48698;45.736;13.926;2022-12-29T20:58:54;98173.88;;;7.98;100.00
52983;BME280;48698;45.736;13.926;2022-12-29T21:04:26;98064.16;;;7.31;100.00
52983;BME280;48698;45.736;13.926;2022-12-29T21:10:00;98080.00;;;7.31;100.00
52983;BME280;48698;45.736;13.926;2022-12-29T21:15:02;98151.22;;;7.90;100.00
52983;BME280;48698;45.736;13.926;2022-12-29T21:20:05;98123.84;;;7.64;100.00
52983;BME280;48698;45.736;13.926;2022-12-29T21:25:08;98046.19;;;7.14;100.00
52983;BME280;48698;45.736;13.926;2022-12-29T21:30:17;98110.94;;;7.55;100.00
52983;BME280;48698;45.736;13.926;2022-12-29T21:35:25;98155.63;;;7.91;100.00
52983;BME280;48698;45.736;13.926;2022-12-29T21:40:28;98039.94;;;7.17;100.00
52983;BME280;48698;45.736;13.926;2022-12-29T21:45:41;98055.44;;;7.27;100.00
52983;BME280;48698;45.736;13.926;2022-12-29T21:50:46;98110.41;;;7.72;100.00
52983;BME280;48698;45.736;13.926;2022-12-29T21:56:10;98095.84;;;7.59;100.00
52983;BME280;48698;45.736;13.926;2022-12-29T22:01:13;98102.09;;;7.82;100.00
52983;BME280;48698;45.736;13.926;2022-12-29T22:06:35;98110.47;;;7.69;100.00
52983;BME280;48698;45.736;13.926;2022-12-29T22:11:56;98136.47;;;7.82;100.00
52983;BME280;48698;45.736;13.926;2022-12-29T22:17:17;98127.63;;;7.84;100.00
52983;BME280;48698;45.736;13.926;2022-12-29T22:22:25;97990.94;;;7.07;100.00
52983;BME280;48698;45.736;13.926;2022-12-29T22:27:29;98042.25;;;7.27;100.00
52983;BME280;48698;45.736;13.926;2022-12-29T22:32:32;98124.88;;;7.87;100.00
52983;BME280;48698;45.736;13.926;2022-12-29T22:37:37;98126.94;;;7.78;100.00
52983;BME280;48698;45.736;13.926;2022-12-29T22:42:41;98117.19;;;7.79;100.00
52983;BME280;48698;45.736;13.926;2022-12-29T22:47:43;98081.00;;;7.55;100.00
52983;BME280;48698;45.736;13.926;2022-12-29T22:52:46;98018.50;;;7.26;100.00
52983;BME280;48698;45.736;13.926;2022-12-29T22:57:49;98065.81;;;7.61;100.00
52983;BME280;48698;45.736;13.926;2022-12-29T23:03:02;98062.22;;;7.62;100.00
52983;BME280;48698;45.736;13.926;2022-12-29T23:08:06;98058.88;;;7.57;100.00
52983;BME280;48698;45.736;13.926;2022-12-29T23:13:09;98033.03;;;7.39;100.00
52983;BME280;48698;45.736;13.926;2022-12-29T23:18:11;98020.47;;;7.47;100.00
52983;BME280;48698;45.736;13.926;2022-12-29T23:23:23;98040.53;;;7.53;100.00
52983;BME280;48698;45.736;13.926;2022-12-29T23:28:49;98081.00;;;7.81;100.00
52983;BME280;48698;45.736;13.926;2022-12-29T23:34:01;98078.16;;;7.87;100.00
52983;BME280;48698;45.736;13.926;2022-12-29T23:39:06;98031.75;;;7.78;100.00
52983;BME280;48698;45.736;13.926;2022-12-29T23:44:14;97993.41;;;7.39;100.00
52983;BME280;48698;45.736;13.926;2022-12-29T23:49:17;98064.50;;;7.99;100.00
52983;BME280;48698;45.736;13.926;2022-12-29T23:54:20;98050.75;;;7.90;100.00
52983;BME280;48698;45.736;13.926;2022-12-29T23:59:23;98068.25;;;7.94;100.00
